sensor_id;sensor_type;location;lat;lon;timestamp;P1;durP1;ratioP1;P2;durP2;ratioP2
3865;SDS011;1948;53.250;10.412;2024-02-23T00:01:44;0.70;;;0.70;;
3865;SDS011;1948;53.250;10.412;2024-02-23T00:04:12;1.60;;;1.10;;
3865;SDS011;1948;53.250;10.412;2024-02-23T00:06:39;1.10;;;1.00;;
3865;SDS011;1948;53.250;10.412;2024-02-23T00:09:09;1.30;;;1.30;;
3865;SDS011;1948;53.250;10.412;2024-02-23T00:11:39;1.53;;;1.23;;
3865;SDS011;1948;53.250;10.412;2024-02-23T00:14:14;1.50;;;1.40;;
3865;SDS011;1948;53.250;10.412;2024-02-23T00:16:50;2.00;;;1.17;;
3865;SDS011;1948;53.250;10.412;2024-02-23T00:19:20;1.27;;;1.27;;
3865;SDS011;1948;53.250;10.412;2024-02-23T00:21:50;10.40;;;1.40;;
3865;SDS011;1948;53.250;10.412;2024-02-23T00:24:21;1.40;;;1.30;;
3865;SDS011;1948;53.250;10.412;2024-02-23T00:26:48;1.43;;;1.30;;
3865;SDS011;1948;53.250;10.412;2024-02-23T00:29:17;3.70;;;1.30;;
3865;SDS011;1948;53.250;10.412;2024-02-23T00:31:48;2.27;;;1.23;;
3865;SDS011;1948;53.250;10.412;2024-02-23T00:34:17;2.10;;;1.53;;
3865;SDS011;1948;53.250;10.412;2024-02-23T00:36:45;2.00;;;1.10;;
3865;SDS011;1948;53.250;10.412;2024-02-23T00:39:15;0.97;;;0.97;;
3865;SDS011;1948;53.250;10.412;2024-02-23T00:41:42;1.70;;;1.13;;
3865;SDS011;1948;53.250;10.412;2024-02-23T00:44:09;1.90;;;1.03;;
3865;SDS011;1948;53.250;10.412;2024-02-23T00:46:39;2.30;;;1.03;;
3865;SDS011;1948;53.250;10.412;2024-02-23T00:49:06;1.17;;;0.80;;
3865;SDS011;1948;53.250;10.412;2024-02-23T00:51:33;1.63;;;1.27;;
3865;SDS011;1948;53.250;10.412;2024-02-23T00:54:03;3.30;;;1.00;;
3865;SDS011;1948;53.250;10.412;2024-02-23T00:56:30;3.00;;;1.30;;
3865;SDS011;1948;53.250;10.412;2024-02-23T00:59:10;1.07;;;0.90;;
3865;SDS011;1948;53.250;10.412;2024-02-23T01:01:37;1.00;;;0.67;;
3865;SDS011;1948;53.250;10.412;2024-02-23T01:04:07;6.80;;;1.00;;
3865;SDS011;1948;53.250;10.412;2024-02-23T01:06:34;1.10;;;1.07;;
3865;SDS011;1948;53.250;10.412;2024-02-23T01:09:02;1.47;;;1.27;;
3865;SDS011;1948;53.250;10.412;2024-02-23T01:11:30;0.90;;;0.90;;
3865;SDS011;1948;53.250;10.412;2024-02-23T01:13:59;3.70;;;0.90;;
3865;SDS011;1948;53.250;10.412;2024-02-23T01:16:26;2.53;;;0.87;;
3865;SDS011;1948;53.250;10.412;2024-02-23T01:18:53;3.17;;;0.80;;
3865;SDS011;1948;53.250;10.412;2024-02-23T01:21:20;1.13;;;0.90;;
3865;SDS011;1948;53.250;10.412;2024-02-23T01:23:52;5.13;;;0.70;;
3865;SDS011;1948;53.250;10.412;2024-02-23T01:26:19;0.97;;;0.77;;
3865;SDS011;1948;53.250;10.412;2024-02-23T01:28:46;3.33;;;1.20;;
3865;SDS011;1948;53.250;10.412;2024-02-23T01:31:16;1.63;;;0.90;;
3865;SDS011;1948;53.250;10.412;2024-02-23T01:33:43;2.50;;;1.07;;
3865;SDS011;1948;53.250;10.412;2024-02-23T01:36:11;3.40;;;0.83;;
3865;SDS011;1948;53.250;10.412;2024-02-23T01:38:43;3.70;;;0.80;;
3865;SDS011;1948;53.250;10.412;2024-02-23T01:41:10;2.13;;;1.00;;
3865;SDS011;1948;53.250;10.412;2024-02-23T01:43:38;4.77;;;1.07;;
3865;SDS011;1948;53.250;10.412;2024-02-23T01:46:08;0.73;;;0.73;;
3865;SDS011;1948;53.250;10.412;2024-02-23T01:48:35;4.00;;;0.57;;
3865;SDS011;1948;53.250;10.412;2024-02-23T01:51:02;0.63;;;0.60;;
3865;SDS011;1948;53.250;10.412;2024-02-23T01:53:30;2.10;;;0.50;;
3865;SDS011;1948;53.250;10.412;2024-02-23T01:55:57;0.40;;;0.40;;
3865;SDS011;1948;53.250;10.412;2024-02-23T01:58:27;0.40;;;0.40;;
3865;SDS011;1948;53.250;10.412;2024-02-23T02:00:58;0.40;;;0.40;;
3865;SDS011;1948;53.250;10.412;2024-02-23T02:03:26;0.40;;;0.40;;
3865;SDS011;1948;53.250;10.412;2024-02-23T02:05:58;0.47;;;0.47;;
3865;SDS011;1948;53.250;10.412;2024-02-23T02:08:25;0.50;;;0.50;;
3865;SDS011;1948;53.250;10.412;2024-02-23T02:10:53;0.40;;;0.40;;
3865;SDS011;1948;53.250;10.412;2024-02-23T02:13:20;0.70;;;0.70;;
3865;SDS011;1948;53.250;10.412;2024-02-23T02:15:47;0.50;;;0.50;;
3865;SDS011;1948;53.250;10.412;2024-02-23T02:18:14;0.70;;;0.67;;
3865;SDS011;1948;53.250;10.412;2024-02-23T02:20:46;1.03;;;0.60;;
3865;SDS011;1948;53.250;10.412;2024-02-23T02:23:26;0.40;;;0.40;;
3865;SDS011;1948;53.250;10.412;2024-02-23T02:25:53;0.80;;;0.50;;
3865;SDS011;1948;53.250;10.412;2024-02-23T02:28:22;0.50;;;0.50;;
3865;SDS011;1948;53.250;10.412;2024-02-23T02:30:53;0.50;;;0.50;;
3865;SDS011;1948;53.250;10.412;2024-02-23T02:33:21;0.50;;;0.50;;
3865;SDS011;1948;53.250;10.412;2024-02-23T02:35:49;0.50;;;0.50;;
3865;SDS011;1948;53.250;10.412;2024-02-23T02:38:16;5.90;;;0.50;;
3865;SDS011;1948;53.250;10.412;2024-02-23T02:40:46;0.50;;;0.50;;
3865;SDS011;1948;53.250;10.412;2024-02-23T02:43:14;0.50;;;0.50;;
3865;SDS011;1948;53.250;10.412;2024-02-23T02:45:44;0.40;;;0.40;;
3865;SDS011;1948;53.250;10.412;2024-02-23T02:48:11;0.50;;;0.50;;
3865;SDS011;1948;53.250;10.412;2024-02-23T02:50:41;0.60;;;0.60;;
3865;SDS011;1948;53.250;10.412;2024-02-23T02:53:08;0.43;;;0.43;;
3865;SDS011;1948;53.250;10.412;2024-02-23T02:55:46;0.40;;;0.40;;
3865;SDS011;1948;53.250;10.412;2024-02-23T02:58:14;0.40;;;0.40;;
3865;SDS011;1948;53.250;10.412;2024-02-23T03:00:41;0.40;;;0.40;;
3865;SDS011;1948;53.250;10.412;2024-02-23T03:03:11;0.43;;;0.43;;
3865;SDS011;1948;53.250;10.412;2024-02-23T03:05:39;1.23;;;0.40;;
3865;SDS011;1948;53.250;10.412;2024-02-23T03:08:09;0.40;;;0.40;;
3865;SDS011;1948;53.250;10.412;2024-02-23T03:10:36;0.40;;;0.40;;
3865;SDS011;1948;53.250;10.412;2024-02-23T03:13:03;0.40;;;0.40;;
3865;SDS011;1948;53.250;10.412;2024-02-23T03:15:30;1.53;;;0.57;;
3865;SDS011;1948;53.250;10.412;2024-02-23T03:17:57;0.40;;;0.40;;
3865;SDS011;1948;53.250;10.412;2024-02-23T03:20:24;0.60;;;0.40;;
3865;SDS011;1948;53.250;10.412;2024-02-23T03:22:53;0.47;;;0.47;;
3865;SDS011;1948;53.250;10.412;2024-02-23T03:25:21;0.40;;;0.40;;
3865;SDS011;1948;53.250;10.412;2024-02-23T03:27:50;0.67;;;0.40;;
3865;SDS011;1948;53.250;10.412;2024-02-23T03:30:17;0.67;;;0.67;;
3865;SDS011;1948;53.250;10.412;2024-02-23T03:32:46;0.40;;;0.40;;
3865;SDS011;1948;53.250;10.412;2024-02-23T03:35:14;0.93;;;0.40;;
3865;SDS011;1948;53.250;10.412;2024-02-23T03:37:41;0.40;;;0.40;;
3865;SDS011;1948;53.250;10.412;2024-02-23T03:40:11;0.40;;;0.40;;
3865;SDS011;1948;53.250;10.412;2024-02-23T03:42:40;0.40;;;0.40;;
3865;SDS011;1948;53.250;10.412;2024-02-23T03:45:08;0.40;;;0.40;;
3865;SDS011;1948;53.250;10.412;2024-02-23T03:47:38;0.40;;;0.40;;
3865;SDS011;1948;53.250;10.412;2024-02-23T03:50:07;0.40;;;0.40;;
3865;SDS011;1948;53.250;10.412;2024-02-23T03:52:35;0.73;;;0.40;;
3865;SDS011;1948;53.250;10.412;2024-02-23T03:55:03;0.50;;;0.50;;
3865;SDS011;1948;53.250;10.412;2024-02-23T03:57:30;0.40;;;0.40;;
3865;SDS011;1948;53.250;10.412;2024-02-23T03:59:58;0.40;;;0.40;;
3865;SDS011;1948;53.250;10.412;2024-02-23T04:02:27;0.40;;;0.40;;
3865;SDS011;1948;53.250;10.412;2024-02-23T04:04:56;0.40;;;0.40;;
3865;SDS011;1948;53.250;10.412;2024-02-23T04:07:26;0.40;;;0.40;;
3865;SDS011;1948;53.250;10.412;2024-02-23T04:09:55;0.40;;;0.40;;
3865;SDS011;1948;53.250;10.412;2024-02-23T04:12:25;0.93;;;0.50;;
3865;SDS011;1948;53.250;10.412;2024-02-23T04:14:54;0.50;;;0.50;;
3865;SDS011;1948;53.250;10.412;2024-02-23T04:17:21;0.47;;;0.47;;
3865;SDS011;1948;53.250;10.412;2024-02-23T04:19:50;0.40;;;0.40;;
3865;SDS011;1948;53.250;10.412;2024-02-23T04:22:17;0.50;;;0.50;;
3865;SDS011;1948;53.250;10.412;2024-02-23T04:24:47;0.47;;;0.47;;
3865;SDS011;1948;53.250;10.412;2024-02-23T04:27:14;0.50;;;0.50;;
3865;SDS011;1948;53.250;10.412;2024-02-23T04:29:41;7.63;;;0.70;;
3865;SDS011;1948;53.250;10.412;2024-02-23T04:32:10;0.60;;;0.60;;
3865;SDS011;1948;53.250;10.412;2024-02-23T04:34:37;0.50;;;0.50;;
3865;SDS011;1948;53.250;10.412;2024-02-23T04:37:05;0.57;;;0.50;;
3865;SDS011;1948;53.250;10.412;2024-02-23T04:39:33;0.70;;;0.70;;
3865;SDS011;1948;53.250;10.412;2024-02-23T04:42:04;0.60;;;0.60;;
3865;SDS011;1948;53.250;10.412;2024-02-23T04:44:31;1.10;;;0.90;;
3865;SDS011;1948;53.250;10.412;2024-02-23T04:46:58;0.93;;;0.70;;
3865;SDS011;1948;53.250;10.412;2024-02-23T04:49:28;1.10;;;1.00;;
3865;SDS011;1948;53.250;10.412;2024-02-23T04:51:57;0.90;;;0.90;;
3865;SDS011;1948;53.250;10.412;2024-02-23T04:54:24;0.90;;;0.90;;
3865;SDS011;1948;53.250;10.412;2024-02-23T04:56:53;3.17;;;1.30;;
3865;SDS011;1948;53.250;10.412;2024-02-23T04:59:25;0.80;;;0.80;;
3865;SDS011;1948;53.250;10.412;2024-02-23T05:01:52;1.03;;;0.93;;
3865;SDS011;1948;53.250;10.412;2024-02-23T05:04:24;1.30;;;1.20;;
3865;SDS011;1948;53.250;10.412;2024-02-23T05:06:55;1.40;;;1.07;;
3865;SDS011;1948;53.250;10.412;2024-02-23T05:09:25;1.37;;;1.17;;
3865;SDS011;1948;53.250;10.412;2024-02-23T05:11:52;3.37;;;1.20;;
3865;SDS011;1948;53.250;10.412;2024-02-23T05:14:19;1.40;;;1.40;;
3865;SDS011;1948;53.250;10.412;2024-02-23T05:16:46;2.20;;;1.07;;
3865;SDS011;1948;53.250;10.412;2024-02-23T05:19:16;1.50;;;1.17;;
3865;SDS011;1948;53.250;10.412;2024-02-23T05:21:43;3.90;;;1.30;;
3865;SDS011;1948;53.250;10.412;2024-02-23T05:24:10;2.33;;;1.00;;
3865;SDS011;1948;53.250;10.412;2024-02-23T05:26:40;1.00;;;1.00;;
3865;SDS011;1948;53.250;10.412;2024-02-23T05:29:07;3.50;;;1.03;;
3865;SDS011;1948;53.250;10.412;2024-02-23T05:31:45;2.40;;;1.60;;
3865;SDS011;1948;53.250;10.412;2024-02-23T05:34:18;1.30;;;1.23;;
3865;SDS011;1948;53.250;10.412;2024-02-23T05:36:47;1.10;;;1.10;;
3865;SDS011;1948;53.250;10.412;2024-02-23T05:39:17;1.27;;;1.10;;
3865;SDS011;1948;53.250;10.412;2024-02-23T05:41:47;6.90;;;1.37;;
3865;SDS011;1948;53.250;10.412;2024-02-23T05:44:16;3.23;;;1.30;;
3865;SDS011;1948;53.250;10.412;2024-02-23T05:46:45;1.40;;;1.40;;
3865;SDS011;1948;53.250;10.412;2024-02-23T05:49:12;3.13;;;1.00;;
3865;SDS011;1948;53.250;10.412;2024-02-23T05:51:42;1.77;;;1.43;;
3865;SDS011;1948;53.250;10.412;2024-02-23T05:54:11;2.20;;;1.57;;
3865;SDS011;1948;53.250;10.412;2024-02-23T05:56:38;2.10;;;1.70;;
3865;SDS011;1948;53.250;10.412;2024-02-23T05:59:07;4.53;;;1.40;;
3865;SDS011;1948;53.250;10.412;2024-02-23T06:01:37;1.60;;;1.40;;
3865;SDS011;1948;53.250;10.412;2024-02-23T06:04:04;6.17;;;1.70;;
3865;SDS011;1948;53.250;10.412;2024-02-23T06:06:34;3.50;;;1.40;;
3865;SDS011;1948;53.250;10.412;2024-02-23T06:09:01;2.40;;;1.60;;
3865;SDS011;1948;53.250;10.412;2024-02-23T06:11:32;2.50;;;1.40;;
3865;SDS011;1948;53.250;10.412;2024-02-23T06:13:59;3.80;;;1.70;;
3865;SDS011;1948;53.250;10.412;2024-02-23T06:16:26;1.60;;;1.50;;
3865;SDS011;1948;53.250;10.412;2024-02-23T06:18:55;1.80;;;1.73;;
3865;SDS011;1948;53.250;10.412;2024-02-23T06:21:22;1.33;;;1.27;;
3865;SDS011;1948;53.250;10.412;2024-02-23T06:23:49;1.90;;;1.80;;
3865;SDS011;1948;53.250;10.412;2024-02-23T06:26:16;1.67;;;1.57;;
3865;SDS011;1948;53.250;10.412;2024-02-23T06:28:43;1.73;;;1.73;;
3865;SDS011;1948;53.250;10.412;2024-02-23T06:31:10;1.73;;;1.60;;
3865;SDS011;1948;53.250;10.412;2024-02-23T06:33:37;4.47;;;2.07;;
3865;SDS011;1948;53.250;10.412;2024-02-23T06:36:05;2.07;;;1.97;;
3865;SDS011;1948;53.250;10.412;2024-02-23T06:38:32;4.83;;;2.40;;
3865;SDS011;1948;53.250;10.412;2024-02-23T06:40:59;2.40;;;1.97;;
3865;SDS011;1948;53.250;10.412;2024-02-23T06:43:26;2.93;;;1.77;;
3865;SDS011;1948;53.250;10.412;2024-02-23T06:45:56;10.60;;;1.50;;
3865;SDS011;1948;53.250;10.412;2024-02-23T06:48:25;10.10;;;2.07;;
3865;SDS011;1948;53.250;10.412;2024-02-23T06:50:56;4.73;;;2.00;;
3865;SDS011;1948;53.250;10.412;2024-02-23T06:53:23;1.70;;;1.60;;
3865;SDS011;1948;53.250;10.412;2024-02-23T06:55:55;3.70;;;2.27;;
3865;SDS011;1948;53.250;10.412;2024-02-23T06:58:22;7.20;;;1.80;;
3865;SDS011;1948;53.250;10.412;2024-02-23T07:00:49;7.40;;;1.73;;
3865;SDS011;1948;53.250;10.412;2024-02-23T07:03:19;4.77;;;1.50;;
3865;SDS011;1948;53.250;10.412;2024-02-23T07:05:48;1.73;;;1.60;;
3865;SDS011;1948;53.250;10.412;2024-02-23T07:08:16;2.03;;;1.37;;
3865;SDS011;1948;53.250;10.412;2024-02-23T07:10:44;2.10;;;1.90;;
3865;SDS011;1948;53.250;10.412;2024-02-23T07:13:11;3.43;;;1.43;;
3865;SDS011;1948;53.250;10.412;2024-02-23T07:15:40;3.33;;;2.10;;
3865;SDS011;1948;53.250;10.412;2024-02-23T07:18:07;4.30;;;2.40;;
3865;SDS011;1948;53.250;10.412;2024-02-23T07:20:35;3.57;;;1.90;;
3865;SDS011;1948;53.250;10.412;2024-02-23T07:23:06;5.80;;;1.53;;
3865;SDS011;1948;53.250;10.412;2024-02-23T07:25:35;10.90;;;2.07;;
3865;SDS011;1948;53.250;10.412;2024-02-23T07:28:07;5.60;;;1.33;;
3865;SDS011;1948;53.250;10.412;2024-02-23T07:30:34;8.13;;;1.33;;
3865;SDS011;1948;53.250;10.412;2024-02-23T07:33:01;3.23;;;1.30;;
3865;SDS011;1948;53.250;10.412;2024-02-23T07:35:31;8.23;;;1.23;;
3865;SDS011;1948;53.250;10.412;2024-02-23T07:38:00;5.37;;;1.67;;
3865;SDS011;1948;53.250;10.412;2024-02-23T07:40:27;1.50;;;1.33;;
3865;SDS011;1948;53.250;10.412;2024-02-23T07:42:54;1.43;;;1.33;;
3865;SDS011;1948;53.250;10.412;2024-02-23T07:45:21;2.30;;;1.10;;
3865;SDS011;1948;53.250;10.412;2024-02-23T07:47:48;3.50;;;1.27;;
3865;SDS011;1948;53.250;10.412;2024-02-23T07:50:15;3.33;;;1.50;;
3865;SDS011;1948;53.250;10.412;2024-02-23T07:52:47;4.27;;;1.63;;
3865;SDS011;1948;53.250;10.412;2024-02-23T07:55:14;5.37;;;1.20;;
3865;SDS011;1948;53.250;10.412;2024-02-23T07:57:44;2.77;;;1.20;;
3865;SDS011;1948;53.250;10.412;2024-02-23T08:00:11;2.20;;;1.60;;
3865;SDS011;1948;53.250;10.412;2024-02-23T08:02:39;1.47;;;1.33;;
3865;SDS011;1948;53.250;10.412;2024-02-23T08:05:08;2.37;;;1.17;;
3865;SDS011;1948;53.250;10.412;2024-02-23T08:07:36;1.90;;;1.03;;
3865;SDS011;1948;53.250;10.412;2024-02-23T08:10:03;3.43;;;1.30;;
3865;SDS011;1948;53.250;10.412;2024-02-23T08:12:38;1.97;;;1.30;;
3865;SDS011;1948;53.250;10.412;2024-02-23T08:15:11;2.33;;;1.60;;
3865;SDS011;1948;53.250;10.412;2024-02-23T08:17:38;2.80;;;1.43;;
3865;SDS011;1948;53.250;10.412;2024-02-23T08:20:05;2.87;;;1.43;;
3865;SDS011;1948;53.250;10.412;2024-02-23T08:22:34;4.03;;;1.50;;
3865;SDS011;1948;53.250;10.412;2024-02-23T08:25:01;2.10;;;1.53;;
3865;SDS011;1948;53.250;10.412;2024-02-23T08:27:28;5.30;;;1.30;;
3865;SDS011;1948;53.250;10.412;2024-02-23T08:29:55;2.37;;;1.30;;
3865;SDS011;1948;53.250;10.412;2024-02-23T08:32:25;4.67;;;1.50;;
3865;SDS011;1948;53.250;10.412;2024-02-23T08:34:52;6.73;;;2.10;;
3865;SDS011;1948;53.250;10.412;2024-02-23T08:37:25;3.63;;;1.43;;
3865;SDS011;1948;53.250;10.412;2024-02-23T08:39:52;3.80;;;1.50;;
3865;SDS011;1948;53.250;10.412;2024-02-23T08:42:20;7.10;;;1.70;;
3865;SDS011;1948;53.250;10.412;2024-02-23T08:44:47;9.33;;;1.40;;
3865;SDS011;1948;53.250;10.412;2024-02-23T08:47:20;4.73;;;1.20;;
3865;SDS011;1948;53.250;10.412;2024-02-23T08:49:47;11.70;;;1.40;;
3865;SDS011;1948;53.250;10.412;2024-02-23T08:52:14;1.47;;;1.30;;
3865;SDS011;1948;53.250;10.412;2024-02-23T08:54:41;2.20;;;1.40;;
3865;SDS011;1948;53.250;10.412;2024-02-23T08:57:11;3.23;;;1.40;;
3865;SDS011;1948;53.250;10.412;2024-02-23T08:59:40;3.50;;;1.40;;
3865;SDS011;1948;53.250;10.412;2024-02-23T09:02:07;8.60;;;1.33;;
3865;SDS011;1948;53.250;10.412;2024-02-23T09:04:36;4.37;;;1.47;;
3865;SDS011;1948;53.250;10.412;2024-02-23T09:07:05;1.33;;;1.10;;
3865;SDS011;1948;53.250;10.412;2024-02-23T09:09:33;2.00;;;1.20;;
3865;SDS011;1948;53.250;10.412;2024-02-23T09:12:00;8.70;;;1.30;;
3865;SDS011;1948;53.250;10.412;2024-02-23T09:14:27;2.00;;;1.80;;
3865;SDS011;1948;53.250;10.412;2024-02-23T09:16:54;2.87;;;1.70;;
3865;SDS011;1948;53.250;10.412;2024-02-23T09:19:26;3.50;;;1.67;;
3865;SDS011;1948;53.250;10.412;2024-02-23T09:21:56;3.70;;;1.40;;
3865;SDS011;1948;53.250;10.412;2024-02-23T09:24:28;4.33;;;2.07;;
3865;SDS011;1948;53.250;10.412;2024-02-23T09:26:57;14.93;;;1.60;;
3865;SDS011;1948;53.250;10.412;2024-02-23T09:29:24;1.60;;;1.50;;
3865;SDS011;1948;53.250;10.412;2024-02-23T09:31:54;6.10;;;1.50;;
3865;SDS011;1948;53.250;10.412;2024-02-23T09:34:21;4.63;;;1.60;;
3865;SDS011;1948;53.250;10.412;2024-02-23T09:36:48;2.13;;;1.40;;
3865;SDS011;1948;53.250;10.412;2024-02-23T09:39:16;4.20;;;1.17;;
3865;SDS011;1948;53.250;10.412;2024-02-23T09:41:43;2.30;;;0.80;;
3865;SDS011;1948;53.250;10.412;2024-02-23T09:44:13;5.10;;;1.20;;
3865;SDS011;1948;53.250;10.412;2024-02-23T09:46:42;3.77;;;1.53;;
3865;SDS011;1948;53.250;10.412;2024-02-23T09:49:11;4.47;;;1.47;;
3865;SDS011;1948;53.250;10.412;2024-02-23T09:51:39;1.33;;;1.07;;
3865;SDS011;1948;53.250;10.412;2024-02-23T09:54:10;3.47;;;1.30;;
3865;SDS011;1948;53.250;10.412;2024-02-23T09:56:42;8.47;;;2.20;;
3865;SDS011;1948;53.250;10.412;2024-02-23T09:59:09;2.03;;;1.57;;
3865;SDS011;1948;53.250;10.412;2024-02-23T10:01:36;5.67;;;1.40;;
3865;SDS011;1948;53.250;10.412;2024-02-23T10:04:03;2.10;;;0.93;;
3865;SDS011;1948;53.250;10.412;2024-02-23T10:06:33;2.87;;;1.50;;
3865;SDS011;1948;53.250;10.412;2024-02-23T10:09:03;4.33;;;1.60;;
3865;SDS011;1948;53.250;10.412;2024-02-23T10:11:30;4.83;;;1.33;;
3865;SDS011;1948;53.250;10.412;2024-02-23T10:14:00;3.07;;;1.33;;
3865;SDS011;1948;53.250;10.412;2024-02-23T10:16:30;25.43;;;1.87;;
3865;SDS011;1948;53.250;10.412;2024-02-23T10:19:00;7.10;;;1.17;;
3865;SDS011;1948;53.250;10.412;2024-02-23T10:21:27;1.43;;;1.33;;
3865;SDS011;1948;53.250;10.412;2024-02-23T10:23:55;3.70;;;1.50;;
3865;SDS011;1948;53.250;10.412;2024-02-23T10:26:22;3.33;;;1.43;;
3865;SDS011;1948;53.250;10.412;2024-02-23T10:28:49;3.17;;;1.47;;
3865;SDS011;1948;53.250;10.412;2024-02-23T10:31:17;3.40;;;1.13;;
3865;SDS011;1948;53.250;10.412;2024-02-23T10:33:45;1.27;;;1.00;;
3865;SDS011;1948;53.250;10.412;2024-02-23T10:36:15;2.73;;;1.60;;
3865;SDS011;1948;53.250;10.412;2024-02-23T10:38:43;9.17;;;1.73;;
3865;SDS011;1948;53.250;10.412;2024-02-23T10:41:18;1.87;;;1.30;;
3865;SDS011;1948;53.250;10.412;2024-02-23T10:43:49;1.70;;;1.20;;
3865;SDS011;1948;53.250;10.412;2024-02-23T10:46:18;2.87;;;2.30;;
3865;SDS011;1948;53.250;10.412;2024-02-23T10:48:46;3.90;;;1.20;;
3865;SDS011;1948;53.250;10.412;2024-02-23T10:51:16;7.73;;;1.40;;
3865;SDS011;1948;53.250;10.412;2024-02-23T10:53:46;2.60;;;1.17;;
3865;SDS011;1948;53.250;10.412;2024-02-23T10:56:16;8.90;;;1.80;;
3865;SDS011;1948;53.250;10.412;2024-02-23T10:58:43;2.40;;;1.03;;
3865;SDS011;1948;53.250;10.412;2024-02-23T11:01:10;5.00;;;1.63;;
3865;SDS011;1948;53.250;10.412;2024-02-23T11:03:40;7.63;;;1.17;;
3865;SDS011;1948;53.250;10.412;2024-02-23T11:06:12;1.60;;;1.00;;
3865;SDS011;1948;53.250;10.412;2024-02-23T11:08:40;3.17;;;1.13;;
3865;SDS011;1948;53.250;10.412;2024-02-23T11:11:15;6.70;;;1.00;;
3865;SDS011;1948;53.250;10.412;2024-02-23T11:13:46;4.20;;;1.80;;
3865;SDS011;1948;53.250;10.412;2024-02-23T11:16:21;3.60;;;1.20;;
3865;SDS011;1948;53.250;10.412;2024-02-23T11:19:04;4.77;;;1.00;;
3865;SDS011;1948;53.250;10.412;2024-02-23T11:21:35;4.90;;;1.27;;
3865;SDS011;1948;53.250;10.412;2024-02-23T11:24:06;1.63;;;1.10;;
3865;SDS011;1948;53.250;10.412;2024-02-23T11:26:36;3.80;;;1.10;;
3865;SDS011;1948;53.250;10.412;2024-02-23T11:29:11;2.73;;;1.10;;
3865;SDS011;1948;53.250;10.412;2024-02-23T11:31:45;4.67;;;1.47;;
3865;SDS011;1948;53.250;10.412;2024-02-23T11:34:13;1.57;;;1.00;;
3865;SDS011;1948;53.250;10.412;2024-02-23T11:36:42;1.93;;;1.00;;
3865;SDS011;1948;53.250;10.412;2024-02-23T11:39:09;1.80;;;1.10;;
3865;SDS011;1948;53.250;10.412;2024-02-23T11:41:39;8.93;;;1.27;;
3865;SDS011;1948;53.250;10.412;2024-02-23T11:44:07;4.60;;;1.37;;
3865;SDS011;1948;53.250;10.412;2024-02-23T11:46:35;1.40;;;1.10;;
3865;SDS011;1948;53.250;10.412;2024-02-23T11:49:02;6.10;;;1.60;;
3865;SDS011;1948;53.250;10.412;2024-02-23T11:51:30;2.50;;;1.20;;
3865;SDS011;1948;53.250;10.412;2024-02-23T11:53:59;1.43;;;1.20;;
3865;SDS011;1948;53.250;10.412;2024-02-23T11:56:27;4.10;;;1.00;;
3865;SDS011;1948;53.250;10.412;2024-02-23T11:58:56;1.30;;;0.90;;
3865;SDS011;1948;53.250;10.412;2024-02-23T12:01:23;3.00;;;1.17;;
3865;SDS011;1948;53.250;10.412;2024-02-23T12:03:55;0.80;;;0.80;;
3865;SDS011;1948;53.250;10.412;2024-02-23T12:06:22;0.97;;;0.97;;
3865;SDS011;1948;53.250;10.412;2024-02-23T12:08:50;2.00;;;1.23;;
3865;SDS011;1948;53.250;10.412;2024-02-23T12:11:17;1.33;;;1.23;;
3865;SDS011;1948;53.250;10.412;2024-02-23T12:13:47;1.47;;;1.07;;
3865;SDS011;1948;53.250;10.412;2024-02-23T12:16:17;2.10;;;1.00;;
3865;SDS011;1948;53.250;10.412;2024-02-23T12:18:51;3.13;;;0.83;;
3865;SDS011;1948;53.250;10.412;2024-02-23T12:21:22;1.00;;;1.00;;
3865;SDS011;1948;53.250;10.412;2024-02-23T12:23:51;0.90;;;0.90;;
3865;SDS011;1948;53.250;10.412;2024-02-23T12:26:23;3.33;;;1.17;;
3865;SDS011;1948;53.250;10.412;2024-02-23T12:28:53;4.10;;;1.03;;
3865;SDS011;1948;53.250;10.412;2024-02-23T12:31:30;1.10;;;0.73;;
3865;SDS011;1948;53.250;10.412;2024-02-23T12:33:59;0.80;;;0.80;;
3865;SDS011;1948;53.250;10.412;2024-02-23T12:36:31;2.30;;;1.00;;
3865;SDS011;1948;53.250;10.412;2024-02-23T12:39:02;2.97;;;0.97;;
3865;SDS011;1948;53.250;10.412;2024-02-23T12:41:29;0.90;;;0.80;;
3865;SDS011;1948;53.250;10.412;2024-02-23T12:43:56;1.87;;;1.10;;
3865;SDS011;1948;53.250;10.412;2024-02-23T12:46:28;4.03;;;0.87;;
3865;SDS011;1948;53.250;10.412;2024-02-23T12:48:58;1.70;;;0.90;;
3865;SDS011;1948;53.250;10.412;2024-02-23T12:51:25;2.60;;;1.10;;
3865;SDS011;1948;53.250;10.412;2024-02-23T12:53:53;1.17;;;0.90;;
3865;SDS011;1948;53.250;10.412;2024-02-23T12:56:22;1.63;;;1.30;;
3865;SDS011;1948;53.250;10.412;2024-02-23T12:58:51;2.90;;;1.10;;
3865;SDS011;1948;53.250;10.412;2024-02-23T13:01:21;6.33;;;0.70;;
3865;SDS011;1948;53.250;10.412;2024-02-23T13:03:54;0.60;;;0.60;;
3865;SDS011;1948;53.250;10.412;2024-02-23T13:06:21;1.13;;;0.93;;
3865;SDS011;1948;53.250;10.412;2024-02-23T13:08:51;0.67;;;0.67;;
3865;SDS011;1948;53.250;10.412;2024-02-23T13:11:18;3.57;;;1.00;;
3865;SDS011;1948;53.250;10.412;2024-02-23T13:13:46;3.43;;;1.50;;
3865;SDS011;1948;53.250;10.412;2024-02-23T13:16:13;0.80;;;0.80;;
3865;SDS011;1948;53.250;10.412;2024-02-23T13:18:42;0.73;;;0.73;;
3865;SDS011;1948;53.250;10.412;2024-02-23T13:21:10;1.40;;;1.30;;
3865;SDS011;1948;53.250;10.412;2024-02-23T13:23:37;0.73;;;0.73;;
3865;SDS011;1948;53.250;10.412;2024-02-23T13:26:05;7.50;;;1.10;;
3865;SDS011;1948;53.250;10.412;2024-02-23T13:28:34;2.80;;;1.00;;
3865;SDS011;1948;53.250;10.412;2024-02-23T13:31:04;1.30;;;0.90;;
3865;SDS011;1948;53.250;10.412;2024-02-23T13:33:34;0.90;;;0.87;;
3865;SDS011;1948;53.250;10.412;2024-02-23T13:36:01;2.73;;;1.10;;
3865;SDS011;1948;53.250;10.412;2024-02-23T13:38:28;1.23;;;1.00;;
3865;SDS011;1948;53.250;10.412;2024-02-23T13:40:56;1.37;;;0.90;;
3865;SDS011;1948;53.250;10.412;2024-02-23T13:43:26;2.43;;;1.20;;
3865;SDS011;1948;53.250;10.412;2024-02-23T13:45:54;3.63;;;0.90;;
3865;SDS011;1948;53.250;10.412;2024-02-23T13:48:21;0.93;;;0.87;;
3865;SDS011;1948;53.250;10.412;2024-02-23T13:50:49;3.63;;;1.53;;
3865;SDS011;1948;53.250;10.412;2024-02-23T13:53:16;1.57;;;0.80;;
3865;SDS011;1948;53.250;10.412;2024-02-23T13:55:43;2.60;;;0.97;;
3865;SDS011;1948;53.250;10.412;2024-02-23T13:58:14;2.07;;;0.83;;
3865;SDS011;1948;53.250;10.412;2024-02-23T14:00:41;1.07;;;0.90;;
3865;SDS011;1948;53.250;10.412;2024-02-23T14:03:08;1.33;;;1.00;;
3865;SDS011;1948;53.250;10.412;2024-02-23T14:05:39;1.13;;;0.97;;
3865;SDS011;1948;53.250;10.412;2024-02-23T14:08:11;2.13;;;0.80;;
3865;SDS011;1948;53.250;10.412;2024-02-23T14:10:38;0.80;;;0.80;;
3865;SDS011;1948;53.250;10.412;2024-02-23T14:13:09;1.20;;;1.03;;
3865;SDS011;1948;53.250;10.412;2024-02-23T14:15:36;1.20;;;1.10;;
3865;SDS011;1948;53.250;10.412;2024-02-23T14:18:03;4.40;;;1.70;;
3865;SDS011;1948;53.250;10.412;2024-02-23T14:20:30;2.10;;;0.90;;
3865;SDS011;1948;53.250;10.412;2024-02-23T14:22:58;1.40;;;1.20;;
3865;SDS011;1948;53.250;10.412;2024-02-23T14:25:25;1.30;;;1.30;;
3865;SDS011;1948;53.250;10.412;2024-02-23T14:27:52;1.90;;;1.13;;
3865;SDS011;1948;53.250;10.412;2024-02-23T14:30:19;1.17;;;1.17;;
3865;SDS011;1948;53.250;10.412;2024-02-23T14:32:47;0.90;;;0.90;;
3865;SDS011;1948;53.250;10.412;2024-02-23T14:35:14;1.10;;;1.10;;
3865;SDS011;1948;53.250;10.412;2024-02-23T14:37:44;1.60;;;1.00;;
3865;SDS011;1948;53.250;10.412;2024-02-23T14:40:11;0.90;;;0.90;;
3865;SDS011;1948;53.250;10.412;2024-02-23T14:42:40;1.50;;;0.80;;
3865;SDS011;1948;53.250;10.412;2024-02-23T14:45:09;1.27;;;0.87;;
3865;SDS011;1948;53.250;10.412;2024-02-23T14:47:39;0.70;;;0.70;;
3865;SDS011;1948;53.250;10.412;2024-02-23T14:50:11;1.60;;;0.90;;
3865;SDS011;1948;53.250;10.412;2024-02-23T14:52:39;4.40;;;1.00;;
3865;SDS011;1948;53.250;10.412;2024-02-23T14:55:06;1.50;;;0.90;;
3865;SDS011;1948;53.250;10.412;2024-02-23T14:57:38;2.50;;;1.10;;
3865;SDS011;1948;53.250;10.412;2024-02-23T15:00:06;1.73;;;0.70;;
3865;SDS011;1948;53.250;10.412;2024-02-23T15:02:36;1.00;;;0.90;;
3865;SDS011;1948;53.250;10.412;2024-02-23T15:05:03;2.30;;;0.80;;
3865;SDS011;1948;53.250;10.412;2024-02-23T15:07:32;1.03;;;1.00;;
3865;SDS011;1948;53.250;10.412;2024-02-23T15:10:01;4.10;;;1.00;;